Terminal Aerodrome Forecast
Issued by NWS Twin Cities, MN

Home | Current Version | Previous Version | Graphics & Text | Print | Product List | Glossary On
Versions: 1 2 3 4 5 6 7 8 9 10 11 12 13 14 15 16 17 18 19 20
000
FTUS43 KMPX 120500
TAFSTC
TAF
KSTC 120524Z 1206/1306 00000KT 1SM BR FEW050 SCT250
     FM120800 30003KT 4SM BR SCT120 BKN250
     FM121300 34005KT P6SM BKN100
     FM122300 28007KT P6SM SCT100=

USA.gov is the U.S. government's official web portal to all federal, state and local government web resources and services.